NKS2932 KBNA-KMCO
Flight info
| Callsign | NKS2932 |
|---|---|
| Flight time | 1h 27m |
| Altitude | 39000 |
| Route | TIPPN4 DENST THRSR ZJAYX GRNCH5 |
| Aircraft | A320/M-SDE3FGHIRWY/LB1 |
Departure
| Time | 2026-05-05 01:06 |
|---|---|
| Airport | Nashville International Airport (KBNA) |
Arrival
| Time | 2026-05-05 02:34 |
|---|---|
| Airport | Orlando International Airport (KMCO) |
| Time | Latitude | Longitude | Altitude | Speed | Heading |
|---|---|---|---|---|---|
| 2026-05-05 00:37 | 36.13164 | -86.67087 | 569 ft | 0 kts | 71° |
| 2026-05-05 00:54 | 36.13159 | -86.67106 | 577 ft | 4 kts | 72° |
| 2026-05-05 00:55 | 36.13152 | -86.67138 | 572 ft | 4 kts | 77° |
| 2026-05-05 00:55 | 36.13147 | -86.67171 | 569 ft | 4 kts | 90° |
| 2026-05-05 00:55 | 36.13152 | -86.67200 | 569 ft | 4 kts | 142° |
| 2026-05-05 00:55 | 36.13157 | -86.67205 | 569 ft | 0 kts | 160° |
| 2026-05-05 00:59 | 36.13155 | -86.67204 | 575 ft | 2 kts | 160° |
| 2026-05-05 01:00 | 36.13083 | -86.67177 | 569 ft | 15 kts | 164° |
| 2026-05-05 01:00 | 36.12982 | -86.67179 | 569 ft | 16 kts | 214° |
| 2026-05-05 01:00 | 36.12888 | -86.67257 | 572 ft | 16 kts | 196° |
| 2026-05-05 01:00 | 36.12793 | -86.67340 | 576 ft | 17 kts | 223° |
| 2026-05-05 01:01 | 36.12701 | -86.67396 | 576 ft | 15 kts | 153° |
| 2026-05-05 01:01 | 36.12622 | -86.67304 | 577 ft | 17 kts | 133° |
| 2026-05-05 01:01 | 36.12529 | -86.67185 | 575 ft | 22 kts | 136° |
| 2026-05-05 01:01 | 36.12420 | -86.67047 | 578 ft | 23 kts | 133° |
| 2026-05-05 01:02 | 36.12321 | -86.66918 | 572 ft | 21 kts | 129° |
| 2026-05-05 01:02 | 36.12265 | -86.66757 | 571 ft | 21 kts | 111° |
| 2026-05-05 01:02 | 36.12221 | -86.66564 | 567 ft | 21 kts | 83° |
| 2026-05-05 01:02 | 36.12298 | -86.66506 | 574 ft | 14 kts | 23° |
| 2026-05-05 01:03 | 36.12408 | -86.66455 | 573 ft | 20 kts | 15° |
| 2026-05-05 01:03 | 36.12554 | -86.66402 | 570 ft | 23 kts | 18° |
| 2026-05-05 01:03 | 36.12714 | -86.66334 | 567 ft | 26 kts | 19° |
| 2026-05-05 01:03 | 36.12888 | -86.66263 | 560 ft | 24 kts | 17° |
| 2026-05-05 01:04 | 36.13062 | -86.66198 | 559 ft | 28 kts | 17° |
| 2026-05-05 01:04 | 36.13375 | -86.66060 | 553 ft | 0 kts | 70° |
| 2026-05-05 01:04 | 36.13376 | -86.66046 | 550 ft | 5 kts | 85° |
| 2026-05-05 01:05 | 36.13359 | -86.65974 | 552 ft | 13 kts | 120° |
| 2026-05-05 01:05 | 36.13282 | -86.65964 | 550 ft | 0 kts | 197° |
| 2026-05-05 01:05 | 36.13194 | -86.66000 | 558 ft | 42 kts | 199° |
| 2026-05-05 01:06 | 36.12700 | -86.66199 | 564 ft | 101 kts | 198° |
| 2026-05-05 01:06 | 36.11918 | -86.66518 | 630 ft | 132 kts | 199° |
| 2026-05-05 01:06 | 36.11016 | -86.66860 | 999 ft | 133 kts | 200° |
| 2026-05-05 01:06 | 36.10134 | -86.67233 | 1429 ft | 135 kts | 201° |
| 2026-05-05 01:07 | 36.09252 | -86.67651 | 1853 ft | 137 kts | 201° |
| 2026-05-05 01:07 | 36.08357 | -86.68079 | 2271 ft | 141 kts | 202° |
| 2026-05-05 01:07 | 36.07316 | -86.68580 | 2368 ft | 176 kts | 202° |
| 2026-05-05 01:07 | 36.06101 | -86.69167 | 2719 ft | 199 kts | 202° |
| 2026-05-05 01:08 | 36.04731 | -86.69831 | 3125 ft | 224 kts | 202° |
| 2026-05-05 01:08 | 36.03203 | -86.70571 | 3604 ft | 247 kts | 202° |
| 2026-05-05 01:08 | 36.01570 | -86.71362 | 4455 ft | 255 kts | 202° |
| 2026-05-05 01:08 | 35.99915 | -86.72164 | 5445 ft | 256 kts | 203° |
| 2026-05-05 01:09 | 35.98248 | -86.72971 | 6444 ft | 258 kts | 202° |
| 2026-05-05 01:09 | 35.96545 | -86.73709 | 7379 ft | 263 kts | 194° |
| 2026-05-05 01:09 | 35.94703 | -86.73863 | 8275 ft | 270 kts | 177° |
| 2026-05-05 01:09 | 35.92868 | -86.73268 | 9131 ft | 279 kts | 159° |
| 2026-05-05 01:10 | 35.91186 | -86.72007 | 9968 ft | 286 kts | 150° |
| 2026-05-05 01:10 | 35.89510 | -86.70614 | 10588 ft | 299 kts | 150° |
| 2026-05-05 01:10 | 35.87713 | -86.69127 | 10837 ft | 322 kts | 150° |
| 2026-05-05 01:10 | 35.85810 | -86.67558 | 11359 ft | 334 kts | 150° |
| 2026-05-05 01:11 | 35.83859 | -86.65951 | 12037 ft | 340 kts | 150° |
| 2026-05-05 01:11 | 35.81878 | -86.64318 | 12721 ft | 346 kts | 149° |
| 2026-05-05 01:11 | 35.79865 | -86.62659 | 13401 ft | 350 kts | 150° |
| 2026-05-05 01:11 | 35.77825 | -86.60979 | 14090 ft | 355 kts | 150° |
| 2026-05-05 01:12 | 35.75761 | -86.59285 | 14750 ft | 358 kts | 150° |
| 2026-05-05 01:12 | 35.73678 | -86.57578 | 15389 ft | 362 kts | 150° |
| 2026-05-05 01:12 | 35.71562 | -86.55849 | 15980 ft | 367 kts | 150° |
| 2026-05-05 01:12 | 35.69417 | -86.54097 | 16574 ft | 372 kts | 150° |
| 2026-05-05 01:13 | 35.67252 | -86.52326 | 17182 ft | 376 kts | 150° |
| 2026-05-05 01:13 | 35.65061 | -86.50533 | 17777 ft | 380 kts | 150° |
| 2026-05-05 01:13 | 35.62850 | -86.48719 | 18363 ft | 384 kts | 150° |
| 2026-05-05 01:13 | 35.60600 | -86.46920 | 18953 ft | 386 kts | 154° |
| 2026-05-05 01:14 | 35.58166 | -86.45526 | 19548 ft | 386 kts | 164° |
| 2026-05-05 01:14 | 35.55585 | -86.44626 | 20121 ft | 387 kts | 170° |
| 2026-05-05 01:14 | 35.52962 | -86.43808 | 20703 ft | 391 kts | 169° |
| 2026-05-05 01:14 | 35.50319 | -86.42975 | 21263 ft | 394 kts | 169° |
| 2026-05-05 01:15 | 35.47650 | -86.42127 | 21795 ft | 398 kts | 169° |
| 2026-05-05 01:15 | 35.44953 | -86.41269 | 22319 ft | 402 kts | 169° |
| 2026-05-05 01:15 | 35.42238 | -86.40404 | 22848 ft | 405 kts | 168° |
| 2026-05-05 01:15 | 35.39563 | -86.39226 | 23358 ft | 413 kts | 158° |
| 2026-05-05 01:16 | 35.37023 | -86.37422 | 23857 ft | 421 kts | 147° |
| 2026-05-05 01:16 | 35.34752 | -86.35101 | 24340 ft | 427 kts | 141° |
| 2026-05-05 01:16 | 35.32532 | -86.32669 | 24803 ft | 430 kts | 141° |
| 2026-05-05 01:16 | 35.30287 | -86.30230 | 25263 ft | 433 kts | 141° |
| 2026-05-05 01:17 | 35.28020 | -86.27782 | 25702 ft | 436 kts | 141° |
| 2026-05-05 01:17 | 35.25736 | -86.25323 | 26132 ft | 439 kts | 141° |
| 2026-05-05 01:17 | 35.23434 | -86.22848 | 26547 ft | 442 kts | 141° |
| 2026-05-05 01:17 | 35.21122 | -86.20358 | 26952 ft | 445 kts | 141° |
| 2026-05-05 01:18 | 35.18795 | -86.17849 | 27343 ft | 447 kts | 141° |
| 2026-05-05 01:18 | 35.16454 | -86.15327 | 27723 ft | 450 kts | 141° |
| 2026-05-05 01:18 | 35.14100 | -86.12791 | 28101 ft | 452 kts | 141° |
| 2026-05-05 01:18 | 35.11733 | -86.10245 | 28474 ft | 455 kts | 141° |
| 2026-05-05 01:19 | 35.09348 | -86.07684 | 28842 ft | 457 kts | 142° |
| 2026-05-05 01:19 | 35.06952 | -86.05113 | 29188 ft | 460 kts | 141° |
| 2026-05-05 01:19 | 35.04542 | -86.02527 | 29557 ft | 462 kts | 142° |
| 2026-05-05 01:19 | 35.02117 | -85.99926 | 29899 ft | 465 kts | 141° |
| 2026-05-05 01:20 | 35.01765 | -85.99549 | 29948 ft | 465 kts | 141° |
| 2026-05-05 01:22 | 34.99934 | -85.97587 | 30233 ft | 466 kts | 142° |
| 2026-05-05 01:22 | 34.97493 | -85.94975 | 30586 ft | 468 kts | 142° |
| 2026-05-05 01:22 | 34.95040 | -85.92346 | 30897 ft | 470 kts | 142° |
| 2026-05-05 01:23 | 34.92579 | -85.89709 | 31209 ft | 473 kts | 142° |
| 2026-05-05 01:23 | 34.90106 | -85.87060 | 31528 ft | 475 kts | 142° |
| 2026-05-05 01:23 | 34.87615 | -85.84401 | 31883 ft | 476 kts | 142° |
| 2026-05-05 01:23 | 34.85129 | -85.81752 | 32329 ft | 475 kts | 142° |
| 2026-05-05 01:24 | 34.82646 | -85.79109 | 32742 ft | 474 kts | 142° |
| 2026-05-05 01:24 | 34.80169 | -85.76473 | 33159 ft | 473 kts | 142° |
| 2026-05-05 01:24 | 34.77687 | -85.73833 | 33546 ft | 473 kts | 142° |
| 2026-05-05 01:24 | 34.75231 | -85.71175 | 33949 ft | 473 kts | 141° |
| 2026-05-05 01:25 | 34.72821 | -85.68443 | 34342 ft | 474 kts | 140° |
| 2026-05-05 01:25 | 34.70447 | -85.65668 | 34676 ft | 475 kts | 139° |
| 2026-05-05 01:25 | 34.68077 | -85.62860 | 34983 ft | 477 kts | 139° |
| 2026-05-05 01:25 | 34.65698 | -85.60044 | 35277 ft | 478 kts | 140° |
| 2026-05-05 01:26 | 34.63300 | -85.57231 | 35545 ft | 480 kts | 140° |
| 2026-05-05 01:26 | 34.60888 | -85.54431 | 35811 ft | 481 kts | 140° |
| 2026-05-05 01:26 | 34.58456 | -85.51634 | 36070 ft | 482 kts | 140° |
| 2026-05-05 01:26 | 34.56012 | -85.48836 | 36321 ft | 484 kts | 140° |
| 2026-05-05 01:27 | 34.53556 | -85.46031 | 36545 ft | 486 kts | 140° |
| 2026-05-05 01:27 | 34.51102 | -85.43227 | 36907 ft | 483 kts | 140° |
| 2026-05-05 01:27 | 34.48665 | -85.40437 | 37239 ft | 482 kts | 140° |
| 2026-05-05 01:27 | 34.46234 | -85.37652 | 37469 ft | 483 kts | 140° |
| 2026-05-05 01:28 | 34.44575 | -85.35752 | 37614 ft | 484 kts | 140° |
| 2026-05-05 01:28 | 34.42158 | -85.32984 | 37814 ft | 486 kts | 140° |
| 2026-05-05 01:28 | 34.39704 | -85.30172 | 38013 ft | 487 kts | 140° |
| 2026-05-05 01:28 | 34.37237 | -85.27350 | 38219 ft | 488 kts | 140° |
| 2026-05-05 01:29 | 34.34735 | -85.24492 | 38420 ft | 489 kts | 140° |
| 2026-05-05 01:29 | 34.32254 | -85.21663 | 38596 ft | 491 kts | 140° |
| 2026-05-05 01:29 | 34.29803 | -85.18866 | 38779 ft | 492 kts | 140° |
| 2026-05-05 01:29 | 34.27283 | -85.15988 | 38958 ft | 493 kts | 140° |
| 2026-05-05 01:30 | 34.22293 | -85.10305 | 39014 ft | 493 kts | 140° |
| 2026-05-05 01:30 | 34.17307 | -85.04649 | 39027 ft | 491 kts | 140° |
| 2026-05-05 01:31 | 34.12331 | -84.99004 | 39028 ft | 490 kts | 140° |
| 2026-05-05 01:31 | 34.07357 | -84.93377 | 39034 ft | 489 kts | 140° |
| 2026-05-05 01:32 | 34.02393 | -84.87770 | 39040 ft | 489 kts | 140° |
| 2026-05-05 01:32 | 33.97429 | -84.82181 | 39048 ft | 489 kts | 141° |
| 2026-05-05 01:33 | 33.92452 | -84.76578 | 39036 ft | 490 kts | 141° |
| 2026-05-05 01:33 | 33.87470 | -84.70967 | 39043 ft | 491 kts | 141° |
| 2026-05-05 01:34 | 33.82477 | -84.65361 | 39057 ft | 491 kts | 141° |
| 2026-05-05 01:34 | 33.77482 | -84.59769 | 39060 ft | 491 kts | 141° |
| 2026-05-05 01:35 | 33.72485 | -84.54179 | 39065 ft | 490 kts | 141° |
| 2026-05-05 01:35 | 33.67490 | -84.48609 | 39066 ft | 490 kts | 141° |
| 2026-05-05 01:36 | 33.62312 | -84.43366 | 39074 ft | 483 kts | 152° |
| 2026-05-05 01:36 | 33.56446 | -84.39626 | 39074 ft | 477 kts | 159° |
| 2026-05-05 01:37 | 33.50496 | -84.36090 | 39077 ft | 477 kts | 159° |
| 2026-05-05 01:37 | 33.44552 | -84.32548 | 39088 ft | 477 kts | 159° |
| 2026-05-05 01:38 | 33.38614 | -84.29003 | 39099 ft | 477 kts | 159° |
| 2026-05-05 01:38 | 33.32662 | -84.25465 | 39105 ft | 478 kts | 159° |
| 2026-05-05 01:39 | 33.26707 | -84.21930 | 39102 ft | 478 kts | 159° |
| 2026-05-05 01:39 | 33.20737 | -84.18390 | 39093 ft | 479 kts | 160° |
| 2026-05-05 01:40 | 33.14759 | -84.14847 | 39088 ft | 480 kts | 160° |
| 2026-05-05 01:40 | 33.08774 | -84.11309 | 39086 ft | 481 kts | 160° |
| 2026-05-05 01:41 | 33.02773 | -84.07770 | 39086 ft | 482 kts | 160° |
| 2026-05-05 01:41 | 32.96752 | -84.04221 | 39087 ft | 483 kts | 160° |
| 2026-05-05 01:42 | 32.90723 | -84.00665 | 39086 ft | 484 kts | 160° |
| 2026-05-05 01:42 | 32.84692 | -83.97126 | 39098 ft | 483 kts | 160° |
| 2026-05-05 01:43 | 32.78669 | -83.93600 | 39102 ft | 482 kts | 160° |
| 2026-05-05 01:43 | 32.72654 | -83.90080 | 39094 ft | 482 kts | 161° |
| 2026-05-05 01:44 | 32.66644 | -83.86570 | 39095 ft | 482 kts | 161° |
| 2026-05-05 01:44 | 32.60631 | -83.83050 | 39094 ft | 482 kts | 161° |
| 2026-05-05 01:45 | 32.54615 | -83.79531 | 39092 ft | 483 kts | 161° |
| 2026-05-05 01:45 | 32.48586 | -83.76023 | 39098 ft | 483 kts | 161° |
| 2026-05-05 01:46 | 32.42504 | -83.72500 | 39097 ft | 484 kts | 161° |
| 2026-05-05 01:46 | 32.36457 | -83.68991 | 39094 ft | 484 kts | 161° |
| 2026-05-05 01:47 | 32.30404 | -83.65483 | 39094 ft | 485 kts | 161° |
| 2026-05-05 01:47 | 32.24341 | -83.61977 | 39093 ft | 485 kts | 161° |
| 2026-05-05 01:48 | 32.18285 | -83.58474 | 39097 ft | 485 kts | 161° |
| 2026-05-05 01:48 | 32.12222 | -83.54970 | 39099 ft | 485 kts | 161° |
| 2026-05-05 01:49 | 32.06158 | -83.51481 | 39102 ft | 485 kts | 161° |
| 2026-05-05 01:49 | 32.00102 | -83.47998 | 39106 ft | 484 kts | 161° |
| 2026-05-05 01:50 | 31.94047 | -83.44510 | 39106 ft | 484 kts | 161° |
| 2026-05-05 01:50 | 31.87996 | -83.41033 | 39108 ft | 484 kts | 161° |
| 2026-05-05 01:51 | 31.81946 | -83.37572 | 39108 ft | 483 kts | 161° |
| 2026-05-05 01:51 | 31.75903 | -83.34121 | 39104 ft | 482 kts | 162° |
| 2026-05-05 01:52 | 31.69872 | -83.30684 | 39099 ft | 482 kts | 161° |
| 2026-05-05 01:52 | 31.63848 | -83.27249 | 39100 ft | 481 kts | 161° |
| 2026-05-05 01:53 | 31.57839 | -83.23847 | 39099 ft | 479 kts | 162° |
| 2026-05-05 01:53 | 31.51825 | -83.20489 | 39099 ft | 478 kts | 162° |
| 2026-05-05 01:54 | 31.45820 | -83.17143 | 39107 ft | 477 kts | 162° |
| 2026-05-05 01:54 | 31.39825 | -83.13791 | 39108 ft | 476 kts | 162° |
| 2026-05-05 01:55 | 31.33853 | -83.10455 | 39108 ft | 475 kts | 162° |
| 2026-05-05 01:55 | 31.27890 | -83.07134 | 39107 ft | 474 kts | 162° |
| 2026-05-05 01:56 | 31.21928 | -83.03825 | 39103 ft | 474 kts | 162° |
| 2026-05-05 01:56 | 31.15984 | -83.00521 | 39102 ft | 473 kts | 162° |
| 2026-05-05 01:57 | 31.10048 | -82.97228 | 39099 ft | 472 kts | 162° |
| 2026-05-05 01:57 | 31.04124 | -82.93947 | 39096 ft | 470 kts | 162° |
| 2026-05-05 01:58 | 30.98339 | -82.90723 | 39073 ft | 451 kts | 162° |
| 2026-05-05 01:58 | 30.92677 | -82.87597 | 39074 ft | 454 kts | 163° |
| 2026-05-05 01:59 | 30.89820 | -82.85953 | 39073 ft | 465 kts | 157° |
| 2026-05-05 01:59 | 30.87094 | -82.83839 | 39073 ft | 476 kts | 149° |
| 2026-05-05 01:59 | 30.81856 | -82.79079 | 39071 ft | 478 kts | 149° |
| 2026-05-05 02:00 | 30.76620 | -82.74324 | 39082 ft | 477 kts | 149° |
| 2026-05-05 02:00 | 30.71379 | -82.69593 | 39082 ft | 476 kts | 149° |
| 2026-05-05 02:01 | 30.66142 | -82.64884 | 39091 ft | 476 kts | 149° |
| 2026-05-05 02:01 | 30.60906 | -82.60181 | 39097 ft | 476 kts | 149° |
| 2026-05-05 02:02 | 30.55663 | -82.55477 | 39107 ft | 476 kts | 149° |
| 2026-05-05 02:02 | 30.51278 | -82.51547 | 39120 ft | 475 kts | 149° |
| 2026-05-05 02:03 | 30.46055 | -82.46863 | 39127 ft | 474 kts | 149° |
| 2026-05-05 02:03 | 30.40841 | -82.42190 | 39129 ft | 473 kts | 149° |
| 2026-05-05 02:04 | 30.35639 | -82.37542 | 39129 ft | 472 kts | 149° |
| 2026-05-05 02:04 | 30.30447 | -82.32921 | 39129 ft | 470 kts | 149° |
| 2026-05-05 02:05 | 30.25265 | -82.28305 | 39104 ft | 469 kts | 149° |
| 2026-05-05 02:05 | 30.22617 | -82.26122 | 38280 ft | 465 kts | 156° |
| 2026-05-05 02:05 | 30.19765 | -82.24396 | 37286 ft | 458 kts | 165° |
| 2026-05-05 02:06 | 30.16792 | -82.23186 | 36437 ft | 449 kts | 173° |
| 2026-05-05 02:06 | 30.13757 | -82.22445 | 35848 ft | 443 kts | 179° |
| 2026-05-05 02:06 | 30.10736 | -82.21858 | 35483 ft | 438 kts | 178° |
| 2026-05-05 02:06 | 30.07743 | -82.21262 | 35063 ft | 435 kts | 178° |
| 2026-05-05 02:07 | 30.04770 | -82.20668 | 34626 ft | 432 kts | 178° |
| 2026-05-05 02:07 | 30.01819 | -82.20076 | 34199 ft | 429 kts | 178° |
| 2026-05-05 02:07 | 29.98894 | -82.19488 | 33764 ft | 426 kts | 178° |
| 2026-05-05 02:07 | 29.95987 | -82.18907 | 33336 ft | 423 kts | 179° |
| 2026-05-05 02:08 | 29.93093 | -82.18335 | 32905 ft | 420 kts | 179° |
| 2026-05-05 02:08 | 29.90218 | -82.17769 | 32433 ft | 418 kts | 179° |
| 2026-05-05 02:08 | 29.87353 | -82.17205 | 31983 ft | 416 kts | 179° |
| 2026-05-05 02:08 | 29.84505 | -82.16641 | 31539 ft | 415 kts | 179° |
| 2026-05-05 02:09 | 29.81671 | -82.16076 | 31103 ft | 413 kts | 179° |
| 2026-05-05 02:09 | 29.78848 | -82.15509 | 30674 ft | 411 kts | 179° |
| 2026-05-05 02:09 | 29.76039 | -82.14945 | 30244 ft | 409 kts | 179° |
| 2026-05-05 02:09 | 29.73245 | -82.14387 | 29816 ft | 407 kts | 179° |
| 2026-05-05 02:10 | 29.70458 | -82.13835 | 29409 ft | 405 kts | 179° |
| 2026-05-05 02:10 | 29.67683 | -82.13285 | 28998 ft | 404 kts | 179° |
| 2026-05-05 02:10 | 29.64924 | -82.12737 | 28597 ft | 402 kts | 179° |
| 2026-05-05 02:10 | 29.62172 | -82.12190 | 28197 ft | 401 kts | 178° |
| 2026-05-05 02:11 | 29.59427 | -82.11644 | 27796 ft | 400 kts | 178° |
| 2026-05-05 02:11 | 29.56692 | -82.11100 | 27397 ft | 398 kts | 178° |
| 2026-05-05 02:11 | 29.53969 | -82.10557 | 26998 ft | 396 kts | 178° |
| 2026-05-05 02:11 | 29.51256 | -82.10020 | 26599 ft | 395 kts | 178° |
| 2026-05-05 02:12 | 29.48559 | -82.09485 | 26197 ft | 393 kts | 177° |
| 2026-05-05 02:12 | 29.43171 | -82.08425 | 25247 ft | 393 kts | 177° |
| 2026-05-05 02:12 | 29.40474 | -82.07895 | 24773 ft | 393 kts | 176° |
| 2026-05-05 02:13 | 29.37777 | -82.07365 | 24276 ft | 393 kts | 176° |
| 2026-05-05 02:13 | 29.35086 | -82.06838 | 23794 ft | 392 kts | 176° |
| 2026-05-05 02:13 | 29.32399 | -82.06296 | 23312 ft | 393 kts | 173° |
| 2026-05-05 02:13 | 29.29781 | -82.05324 | 22863 ft | 399 kts | 160° |
| 2026-05-05 02:14 | 29.27356 | -82.03832 | 22706 ft | 391 kts | 155° |
| 2026-05-05 02:14 | 29.25009 | -82.02333 | 22169 ft | 383 kts | 156° |
| 2026-05-05 02:14 | 29.22690 | -82.00874 | 21415 ft | 378 kts | 156° |
| 2026-05-05 02:14 | 29.20405 | -81.99447 | 20845 ft | 369 kts | 156° |
| 2026-05-05 02:15 | 29.18195 | -81.98065 | 20418 ft | 356 kts | 156° |
| 2026-05-05 02:15 | 29.16062 | -81.96726 | 19990 ft | 344 kts | 156° |
| 2026-05-05 02:15 | 29.13995 | -81.95426 | 19570 ft | 334 kts | 156° |
| 2026-05-05 02:15 | 29.11984 | -81.94166 | 19164 ft | 328 kts | 156° |
| 2026-05-05 02:16 | 29.09978 | -81.92916 | 18772 ft | 328 kts | 156° |
| 2026-05-05 02:16 | 29.07981 | -81.91665 | 18382 ft | 327 kts | 154° |
| 2026-05-05 02:16 | 29.06126 | -81.90166 | 17955 ft | 329 kts | 142° |
| 2026-05-05 02:16 | 29.04452 | -81.88370 | 17522 ft | 330 kts | 140° |
| 2026-05-05 02:17 | 29.02782 | -81.86568 | 17124 ft | 331 kts | 140° |
| 2026-05-05 02:17 | 29.01107 | -81.84770 | 16727 ft | 331 kts | 140° |
| 2026-05-05 02:17 | 28.99425 | -81.82969 | 16329 ft | 331 kts | 140° |
| 2026-05-05 02:17 | 28.97807 | -81.81089 | 15908 ft | 333 kts | 132° |
| 2026-05-05 02:18 | 28.96380 | -81.78986 | 15546 ft | 337 kts | 129° |
| 2026-05-05 02:18 | 28.94953 | -81.76860 | 15233 ft | 337 kts | 129° |
| 2026-05-05 02:18 | 28.93527 | -81.74742 | 14867 ft | 335 kts | 129° |
| 2026-05-05 02:18 | 28.92110 | -81.72643 | 14530 ft | 333 kts | 129° |
| 2026-05-05 02:19 | 28.90699 | -81.70557 | 14181 ft | 331 kts | 129° |
| 2026-05-05 02:19 | 28.89299 | -81.68488 | 13835 ft | 328 kts | 129° |
| 2026-05-05 02:19 | 28.87908 | -81.66430 | 13490 ft | 326 kts | 129° |
| 2026-05-05 02:19 | 28.86533 | -81.64393 | 13153 ft | 323 kts | 129° |
| 2026-05-05 02:20 | 28.85165 | -81.62370 | 12819 ft | 321 kts | 129° |
| 2026-05-05 02:20 | 28.83807 | -81.60362 | 12481 ft | 318 kts | 129° |
| 2026-05-05 02:20 | 28.82461 | -81.58371 | 12141 ft | 316 kts | 129° |
| 2026-05-05 02:20 | 28.81124 | -81.56393 | 11810 ft | 314 kts | 129° |
| 2026-05-05 02:21 | 28.79675 | -81.54564 | 11498 ft | 309 kts | 140° |
| 2026-05-05 02:21 | 28.77926 | -81.53188 | 11172 ft | 303 kts | 153° |
| 2026-05-05 02:21 | 28.76063 | -81.52080 | 10850 ft | 301 kts | 154° |
| 2026-05-05 02:21 | 28.74217 | -81.50981 | 10517 ft | 298 kts | 154° |
| 2026-05-05 02:22 | 28.72365 | -81.49873 | 10207 ft | 296 kts | 153° |
| 2026-05-05 02:22 | 28.70574 | -81.48799 | 9901 ft | 294 kts | 153° |
| 2026-05-05 02:22 | 28.68772 | -81.47720 | 9585 ft | 292 kts | 153° |
| 2026-05-05 02:22 | 28.66957 | -81.46633 | 9273 ft | 290 kts | 153° |
| 2026-05-05 02:23 | 28.65177 | -81.45567 | 8977 ft | 288 kts | 153° |
| 2026-05-05 02:23 | 28.63412 | -81.44508 | 8671 ft | 286 kts | 153° |
| 2026-05-05 02:23 | 28.61658 | -81.43459 | 8424 ft | 281 kts | 154° |
| 2026-05-05 02:23 | 28.59849 | -81.42742 | 8295 ft | 271 kts | 169° |
| 2026-05-05 02:24 | 28.58009 | -81.42511 | 8182 ft | 261 kts | 175° |
| 2026-05-05 02:24 | 28.56226 | -81.42415 | 8061 ft | 253 kts | 180° |
| 2026-05-05 02:24 | 28.54474 | -81.42418 | 7808 ft | 250 kts | 180° |
| 2026-05-05 02:24 | 28.52742 | -81.42420 | 7558 ft | 247 kts | 180° |
| 2026-05-05 02:25 | 28.51032 | -81.42421 | 7316 ft | 245 kts | 179° |
| 2026-05-05 02:25 | 28.49325 | -81.42421 | 7073 ft | 244 kts | 179° |
| 2026-05-05 02:25 | 28.47633 | -81.42420 | 6832 ft | 243 kts | 179° |
| 2026-05-05 02:25 | 28.45948 | -81.42419 | 6596 ft | 242 kts | 179° |
| 2026-05-05 02:26 | 28.44269 | -81.42421 | 6367 ft | 241 kts | 179° |
| 2026-05-05 02:26 | 28.42598 | -81.42421 | 6133 ft | 240 kts | 179° |
| 2026-05-05 02:26 | 28.40935 | -81.42419 | 5887 ft | 238 kts | 178° |
| 2026-05-05 02:26 | 28.39279 | -81.42418 | 5650 ft | 238 kts | 178° |
| 2026-05-05 02:27 | 28.37631 | -81.42419 | 5420 ft | 237 kts | 178° |
| 2026-05-05 02:27 | 28.35998 | -81.42418 | 5197 ft | 232 kts | 178° |
| 2026-05-05 02:27 | 28.34400 | -81.42416 | 4991 ft | 226 kts | 178° |
| 2026-05-05 02:27 | 28.32862 | -81.42399 | 4857 ft | 217 kts | 176° |
| 2026-05-05 02:28 | 28.31372 | -81.42371 | 4617 ft | 213 kts | 176° |
| 2026-05-05 02:28 | 28.29899 | -81.42341 | 4327 ft | 212 kts | 176° |
| 2026-05-05 02:28 | 28.28439 | -81.42222 | 4023 ft | 208 kts | 160° |
| 2026-05-05 02:28 | 28.27235 | -81.41404 | 3728 ft | 201 kts | 129° |
| 2026-05-05 02:29 | 28.26600 | -81.40032 | 3421 ft | 197 kts | 99° |
| 2026-05-05 02:29 | 28.26573 | -81.38492 | 3119 ft | 196 kts | 87° |
| 2026-05-05 02:29 | 28.26626 | -81.36955 | 3021 ft | 195 kts | 88° |
| 2026-05-05 02:29 | 28.26674 | -81.35413 | 3027 ft | 196 kts | 88° |
| 2026-05-05 02:30 | 28.26718 | -81.33867 | 3030 ft | 196 kts | 88° |
| 2026-05-05 02:30 | 28.26762 | -81.32317 | 3032 ft | 196 kts | 88° |
| 2026-05-05 02:30 | 28.26824 | -81.30767 | 2924 ft | 199 kts | 81° |
| 2026-05-05 02:30 | 28.27344 | -81.29350 | 2796 ft | 195 kts | 54° |
| 2026-05-05 02:31 | 28.28366 | -81.28399 | 2681 ft | 190 kts | 27° |
| 2026-05-05 02:31 | 28.29649 | -81.28101 | 2492 ft | 190 kts | 3° |
| 2026-05-05 02:31 | 28.30970 | -81.28117 | 2249 ft | 190 kts | 2° |
| 2026-05-05 02:31 | 28.32290 | -81.28134 | 1993 ft | 189 kts | 2° |
| 2026-05-05 02:32 | 28.33605 | -81.28148 | 1736 ft | 188 kts | 2° |
| 2026-05-05 02:32 | 28.34879 | -81.28163 | 1483 ft | 178 kts | 2° |
| 2026-05-05 02:32 | 28.36083 | -81.28175 | 1259 ft | 168 kts | 2° |
| 2026-05-05 02:32 | 28.37220 | -81.28187 | 1043 ft | 160 kts | 2° |
| 2026-05-05 02:33 | 28.38322 | -81.28197 | 842 ft | 156 kts | 2° |
| 2026-05-05 02:33 | 28.39402 | -81.28208 | 647 ft | 151 kts | 2° |
| 2026-05-05 02:33 | 28.40417 | -81.28218 | 450 ft | 147 kts | 2° |
| 2026-05-05 02:33 | 28.41446 | -81.28238 | 221 ft | 144 kts | 2° |
| 2026-05-05 02:34 | 28.42409 | -81.28244 | 103 ft | 130 kts | 4° |
| 2026-05-05 02:34 | 28.43214 | -81.28245 | 96 ft | 93 kts | 359° |
| 2026-05-05 02:34 | 28.43600 | -81.28248 | 98 ft | 38 kts | 359° |
| 2026-05-05 02:34 | 28.43831 | -81.28263 | 98 ft | 22 kts | 324° |
| 2026-05-05 02:35 | 28.43857 | -81.28371 | 96 ft | 16 kts | 287° |
| 2026-05-05 02:35 | 28.43873 | -81.28514 | 101 ft | 19 kts | 271° |
| 2026-05-05 02:35 | 28.43873 | -81.28673 | 102 ft | 22 kts | 269° |
| 2026-05-05 02:35 | 28.43872 | -81.28844 | 109 ft | 23 kts | 270° |
| 2026-05-05 02:36 | 28.43868 | -81.29043 | 107 ft | 27 kts | 268° |
| 2026-05-05 02:36 | 28.43860 | -81.29222 | 97 ft | 16 kts | 251° |
| 2026-05-05 02:36 | 28.43762 | -81.29262 | 98 ft | 17 kts | 180° |
| 2026-05-05 02:36 | 28.43634 | -81.29260 | 99 ft | 20 kts | 178° |
| 2026-05-05 02:37 | 28.43556 | -81.29345 | 96 ft | 19 kts | 268° |
| 2026-05-05 02:37 | 28.43551 | -81.29509 | 97 ft | 22 kts | 268° |
| 2026-05-05 02:37 | 28.43545 | -81.29695 | 96 ft | 25 kts | 269° |
| 2026-05-05 02:37 | 28.43622 | -81.29805 | 96 ft | 18 kts | 18° |
| 2026-05-05 02:38 | 28.43753 | -81.29825 | 95 ft | 23 kts | 341° |
| 2026-05-05 02:38 | 28.43874 | -81.29950 | 99 ft | 25 kts | 297° |
| 2026-05-05 02:38 | 28.43902 | -81.30147 | 101 ft | 26 kts | 272° |
| 2026-05-05 02:38 | 28.43907 | -81.30288 | 103 ft | 27 kts | 274° |
| 2026-05-05 02:39 | 28.43916 | -81.30501 | 106 ft | 23 kts | 271° |
| 2026-05-05 02:39 | 28.43931 | -81.30676 | 109 ft | 15 kts | 272° |
| 2026-05-05 02:39 | 28.43936 | -81.30803 | 110 ft | 17 kts | 272° |
| 2026-05-05 02:39 | 28.43942 | -81.30956 | 108 ft | 21 kts | 271° |
| 2026-05-05 02:40 | 28.43937 | -81.31227 | 108 ft | 32 kts | 268° |
| 2026-05-05 02:40 | 28.43927 | -81.31390 | 104 ft | 31 kts | 261° |
| 2026-05-05 02:40 | 28.43842 | -81.31452 | 104 ft | 18 kts | 145° |
| 2026-05-05 02:40 | 28.43721 | -81.31418 | 101 ft | 8 kts | 176° |
| 2026-05-05 02:41 | 28.43641 | -81.31443 | 94 ft | 7 kts | 248° |
| 2026-05-05 02:41 | 28.43632 | -81.31453 | 94 ft | 3 kts | 228° |
| 2026-05-05 02:41 | 28.43619 | -81.31474 | 94 ft | 0 kts | 234° |